sensor_id;sensor_type;location;lat;lon;timestamp;temperature;humidity
25939;DHT22;13739;51.172;4.466;2023-01-13T00:01:04;10.20;99.90
25939;DHT22;13739;51.172;4.466;2023-01-13T00:03:29;10.10;99.90
25939;DHT22;13739;51.172;4.466;2023-01-13T00:05:58;10.10;99.90
25939;DHT22;13739;51.172;4.466;2023-01-13T00:08:23;10.00;99.90
25939;DHT22;13739;51.172;4.466;2023-01-13T00:10:49;10.00;99.90
25939;DHT22;13739;51.172;4.466;2023-01-13T00:13:15;10.00;99.90
25939;DHT22;13739;51.172;4.466;2023-01-13T00:15:41;9.90;99.90
25939;DHT22;13739;51.172;4.466;2023-01-13T00:18:07;9.90;99.90
25939;DHT22;13739;51.172;4.466;2023-01-13T00:20:32;9.90;99.90
25939;DHT22;13739;51.172;4.466;2023-01-13T00:22:58;9.80;99.90
25939;DHT22;13739;51.172;4.466;2023-01-13T00:25:24;9.80;99.90
25939;DHT22;13739;51.172;4.466;2023-01-13T00:27:50;9.80;99.90
25939;DHT22;13739;51.172;4.466;2023-01-13T00:30:16;9.80;99.90
25939;DHT22;13739;51.172;4.466;2023-01-13T00:32:41;9.70;99.90
25939;DHT22;13739;51.172;4.466;2023-01-13T00:35:07;9.70;99.90
25939;DHT22;13739;51.172;4.466;2023-01-13T00:37:36;9.60;99.90
25939;DHT22;13739;51.172;4.466;2023-01-13T00:40:04;9.60;99.90
25939;DHT22;13739;51.172;4.466;2023-01-13T00:42:29;9.60;99.90
25939;DHT22;13739;51.172;4.466;2023-01-13T00:45:13;9.60;99.90
25939;DHT22;13739;51.172;4.466;2023-01-13T00:47:40;9.60;99.90
25939;DHT22;13739;51.172;4.466;2023-01-13T00:50:06;9.50;99.90
25939;DHT22;13739;51.172;4.466;2023-01-13T00:52:32;9.50;99.90
25939;DHT22;13739;51.172;4.466;2023-01-13T00:54:58;9.60;99.90
25939;DHT22;13739;51.172;4.466;2023-01-13T00:57:25;9.50;99.90
25939;DHT22;13739;51.172;4.466;2023-01-13T00:59:50;9.50;99.90
25939;DHT22;13739;51.172;4.466;2023-01-13T01:02:16;9.50;99.90
25939;DHT22;13739;51.172;4.466;2023-01-13T01:04:42;9.50;99.90
25939;DHT22;13739;51.172;4.466;2023-01-13T01:07:07;9.50;99.90
25939;DHT22;13739;51.172;4.466;2023-01-13T01:09:33;9.40;99.90
25939;DHT22;13739;51.172;4.466;2023-01-13T01:11:59;9.40;99.90
25939;DHT22;13739;51.172;4.466;2023-01-13T01:14:26;9.40;99.90
25939;DHT22;13739;51.172;4.466;2023-01-13T01:16:52;9.30;99.90
25939;DHT22;13739;51.172;4.466;2023-01-13T01:19:18;9.30;99.90
25939;DHT22;13739;51.172;4.466;2023-01-13T01:21:43;9.30;99.90
25939;DHT22;13739;51.172;4.466;2023-01-13T01:24:09;9.30;99.90
25939;DHT22;13739;51.172;4.466;2023-01-13T01:26:35;9.30;99.90
25939;DHT22;13739;51.172;4.466;2023-01-13T01:29:00;9.30;99.90
25939;DHT22;13739;51.172;4.466;2023-01-13T01:31:30;9.20;99.90
25939;DHT22;13739;51.172;4.466;2023-01-13T01:33:57;9.30;99.90
25939;DHT22;13739;51.172;4.466;2023-01-13T01:36:24;9.30;99.90
25939;DHT22;13739;51.172;4.466;2023-01-13T01:38:57;9.30;99.90
25939;DHT22;13739;51.172;4.466;2023-01-13T01:41:26;9.30;99.90
25939;DHT22;13739;51.172;4.466;2023-01-13T01:46:38;9.20;99.90
25939;DHT22;13739;51.172;4.466;2023-01-13T01:51:46;9.20;99.90
25939;DHT22;13739;51.172;4.466;2023-01-13T01:54:23;9.20;99.90
25939;DHT22;13739;51.172;4.466;2023-01-13T01:56:50;9.30;99.90
25939;DHT22;13739;51.172;4.466;2023-01-13T01:59:16;9.30;99.90
25939;DHT22;13739;51.172;4.466;2023-01-13T02:01:42;9.30;99.90
25939;DHT22;13739;51.172;4.466;2023-01-13T02:04:19;9.20;99.90
25939;DHT22;13739;51.172;4.466;2023-01-13T02:06:48;9.20;99.90
25939;DHT22;13739;51.172;4.466;2023-01-13T02:09:14;9.30;99.90
25939;DHT22;13739;51.172;4.466;2023-01-13T02:11:40;9.30;99.90
25939;DHT22;13739;51.172;4.466;2023-01-13T02:14:26;9.30;99.90
25939;DHT22;13739;51.172;4.466;2023-01-13T02:23:19;9.40;99.90
25939;DHT22;13739;51.172;4.466;2023-01-13T02:29:36;9.50;99.90
25939;DHT22;13739;51.172;4.466;2023-01-13T02:32:32;9.40;99.90
25939;DHT22;13739;51.172;4.466;2023-01-13T02:37:45;9.60;99.90
25939;DHT22;13739;51.172;4.466;2023-01-13T02:40:36;9.60;99.90
25939;DHT22;13739;51.172;4.466;2023-01-13T02:43:09;9.50;99.90
25939;DHT22;13739;51.172;4.466;2023-01-13T02:46:04;9.50;99.90
25939;DHT22;13739;51.172;4.466;2023-01-13T02:48:33;9.40;99.90
25939;DHT22;13739;51.172;4.466;2023-01-13T02:51:21;9.30;99.90
25939;DHT22;13739;51.172;4.466;2023-01-13T02:56:18;9.20;99.90
25939;DHT22;13739;51.172;4.466;2023-01-13T02:58:46;9.10;99.90
25939;DHT22;13739;51.172;4.466;2023-01-13T03:01:13;9.00;99.90
25939;DHT22;13739;51.172;4.466;2023-01-13T03:03:39;8.70;99.90
25939;DHT22;13739;51.172;4.466;2023-01-13T03:11:21;8.30;99.90
25939;DHT22;13739;51.172;4.466;2023-01-13T03:14:09;8.30;99.90
25939;DHT22;13739;51.172;4.466;2023-01-13T03:16:40;8.40;99.90
25939;DHT22;13739;51.172;4.466;2023-01-13T03:19:29;8.40;99.90
25939;DHT22;13739;51.172;4.466;2023-01-13T03:24:38;8.40;99.90
25939;DHT22;13739;51.172;4.466;2023-01-13T03:27:14;8.50;99.90
25939;DHT22;13739;51.172;4.466;2023-01-13T03:32:22;8.30;99.90
25939;DHT22;13739;51.172;4.466;2023-01-13T03:34:51;8.40;99.90
25939;DHT22;13739;51.172;4.466;2023-01-13T03:37:20;8.40;99.90
25939;DHT22;13739;51.172;4.466;2023-01-13T03:40:13;8.30;99.90
25939;DHT22;13739;51.172;4.466;2023-01-13T03:42:41;8.40;99.90
25939;DHT22;13739;51.172;4.466;2023-01-13T03:45:33;8.30;99.90
25939;DHT22;13739;51.172;4.466;2023-01-13T03:48:03;8.30;99.90
25939;DHT22;13739;51.172;4.466;2023-01-13T03:50:36;8.30;99.90
25939;DHT22;13739;51.172;4.466;2023-01-13T03:53:10;8.30;99.90
25939;DHT22;13739;51.172;4.466;2023-01-13T03:55:42;8.20;99.90
25939;DHT22;13739;51.172;4.466;2023-01-13T03:58:15;8.20;99.90
25939;DHT22;13739;51.172;4.466;2023-01-13T04:03:49;8.20;99.90
25939;DHT22;13739;51.172;4.466;2023-01-13T04:06:25;8.20;99.90
25939;DHT22;13739;51.172;4.466;2023-01-13T04:09:29;8.10;99.90
25939;DHT22;13739;51.172;4.466;2023-01-13T04:14:42;8.10;99.90
25939;DHT22;13739;51.172;4.466;2023-01-13T04:17:09;8.10;99.90
25939;DHT22;13739;51.172;4.466;2023-01-13T04:19:35;8.10;99.90
25939;DHT22;13739;51.172;4.466;2023-01-13T04:22:01;8.20;99.90
25939;DHT22;13739;51.172;4.466;2023-01-13T04:24:27;8.10;99.90
25939;DHT22;13739;51.172;4.466;2023-01-13T04:26:52;8.20;99.90
25939;DHT22;13739;51.172;4.466;2023-01-13T04:29:21;8.20;99.90
25939;DHT22;13739;51.172;4.466;2023-01-13T04:31:46;8.30;99.90
25939;DHT22;13739;51.172;4.466;2023-01-13T04:34:12;8.30;99.90
25939;DHT22;13739;51.172;4.466;2023-01-13T04:36:37;8.30;99.90
25939;DHT22;13739;51.172;4.466;2023-01-13T04:39:03;8.40;99.90
25939;DHT22;13739;51.172;4.466;2023-01-13T04:41:29;8.40;99.90
25939;DHT22;13739;51.172;4.466;2023-01-13T04:44:17;8.30;99.90
25939;DHT22;13739;51.172;4.466;2023-01-13T04:46:43;8.30;99.90
25939;DHT22;13739;51.172;4.466;2023-01-13T04:49:08;8.30;99.90
25939;DHT22;13739;51.172;4.466;2023-01-13T04:51:34;8.30;99.90
25939;DHT22;13739;51.172;4.466;2023-01-13T04:54:00;8.20;99.90
25939;DHT22;13739;51.172;4.466;2023-01-13T04:56:25;8.30;99.90
25939;DHT22;13739;51.172;4.466;2023-01-13T04:58:51;8.30;99.90
25939;DHT22;13739;51.172;4.466;2023-01-13T05:01:16;8.20;99.90
25939;DHT22;13739;51.172;4.466;2023-01-13T05:03:42;8.20;99.90
25939;DHT22;13739;51.172;4.466;2023-01-13T05:06:08;8.20;99.90
25939;DHT22;13739;51.172;4.466;2023-01-13T05:08:33;8.10;99.90
25939;DHT22;13739;51.172;4.466;2023-01-13T05:11:00;8.10;99.90
25939;DHT22;13739;51.172;4.466;2023-01-13T05:13:25;8.20;99.90
25939;DHT22;13739;51.172;4.466;2023-01-13T05:16:11;8.20;99.90
25939;DHT22;13739;51.172;4.466;2023-01-13T05:18:55;8.30;99.90
25939;DHT22;13739;51.172;4.466;2023-01-13T05:21:21;8.30;99.90
25939;DHT22;13739;51.172;4.466;2023-01-13T05:24:06;8.30;99.90
25939;DHT22;13739;51.172;4.466;2023-01-13T05:27:05;8.30;99.90
25939;DHT22;13739;51.172;4.466;2023-01-13T05:29:30;8.30;99.90
25939;DHT22;13739;51.172;4.466;2023-01-13T05:31:56;8.30;99.90
25939;DHT22;13739;51.172;4.466;2023-01-13T05:34:22;8.30;99.90
25939;DHT22;13739;51.172;4.466;2023-01-13T05:36:47;8.30;99.90
25939;DHT22;13739;51.172;4.466;2023-01-13T05:39:13;8.30;99.90
25939;DHT22;13739;51.172;4.466;2023-01-13T05:41:38;8.30;99.90
25939;DHT22;13739;51.172;4.466;2023-01-13T05:44:22;8.30;99.90
25939;DHT22;13739;51.172;4.466;2023-01-13T05:46:48;8.30;99.90
25939;DHT22;13739;51.172;4.466;2023-01-13T05:49:14;8.20;99.90
25939;DHT22;13739;51.172;4.466;2023-01-13T05:51:39;8.20;99.90
25939;DHT22;13739;51.172;4.466;2023-01-13T05:54:05;8.30;99.90
25939;DHT22;13739;51.172;4.466;2023-01-13T05:56:31;8.30;99.90
25939;DHT22;13739;51.172;4.466;2023-01-13T05:58:56;8.20;99.90
25939;DHT22;13739;51.172;4.466;2023-01-13T06:01:22;8.20;99.90
25939;DHT22;13739;51.172;4.466;2023-01-13T06:03:47;8.10;99.90
25939;DHT22;13739;51.172;4.466;2023-01-13T06:06:13;8.20;99.90
25939;DHT22;13739;51.172;4.466;2023-01-13T06:08:39;8.20;99.90
25939;DHT22;13739;51.172;4.466;2023-01-13T06:11:04;8.20;99.90
25939;DHT22;13739;51.172;4.466;2023-01-13T06:13:30;8.20;99.90
25939;DHT22;13739;51.172;4.466;2023-01-13T06:15:56;8.20;99.90
25939;DHT22;13739;51.172;4.466;2023-01-13T06:18:22;8.20;99.90
25939;DHT22;13739;51.172;4.466;2023-01-13T06:20:48;8.20;99.90
25939;DHT22;13739;51.172;4.466;2023-01-13T06:23:14;8.20;99.90
25939;DHT22;13739;51.172;4.466;2023-01-13T06:26:03;8.20;99.90
25939;DHT22;13739;51.172;4.466;2023-01-13T06:28:30;8.20;99.90
25939;DHT22;13739;51.172;4.466;2023-01-13T06:30:59;8.20;99.90
25939;DHT22;13739;51.172;4.466;2023-01-13T06:33:39;8.20;99.90
25939;DHT22;13739;51.172;4.466;2023-01-13T06:36:11;8.20;99.90
25939;DHT22;13739;51.172;4.466;2023-01-13T06:38:39;8.10;99.90
25939;DHT22;13739;51.172;4.466;2023-01-13T06:41:07;8.10;99.90
25939;DHT22;13739;51.172;4.466;2023-01-13T06:43:33;8.10;99.90
25939;DHT22;13739;51.172;4.466;2023-01-13T06:46:00;8.10;99.90
25939;DHT22;13739;51.172;4.466;2023-01-13T06:48:28;8.10;99.90
25939;DHT22;13739;51.172;4.466;2023-01-13T06:50:57;8.10;99.90
25939;DHT22;13739;51.172;4.466;2023-01-13T06:53:23;8.10;99.90
25939;DHT22;13739;51.172;4.466;2023-01-13T06:55:48;8.10;99.90
25939;DHT22;13739;51.172;4.466;2023-01-13T06:58:14;8.10;99.90
25939;DHT22;13739;51.172;4.466;2023-01-13T07:00:40;8.10;99.90
25939;DHT22;13739;51.172;4.466;2023-01-13T07:03:08;8.10;99.90
25939;DHT22;13739;51.172;4.466;2023-01-13T07:05:33;8.00;99.90
25939;DHT22;13739;51.172;4.466;2023-01-13T07:07:59;8.00;99.90
25939;DHT22;13739;51.172;4.466;2023-01-13T07:10:25;8.10;99.90
25939;DHT22;13739;51.172;4.466;2023-01-13T07:12:51;8.10;99.90
25939;DHT22;13739;51.172;4.466;2023-01-13T07:15:35;8.10;99.90
25939;DHT22;13739;51.172;4.466;2023-01-13T07:18:01;8.10;99.90
25939;DHT22;13739;51.172;4.466;2023-01-13T07:20:28;8.10;99.90
25939;DHT22;13739;51.172;4.466;2023-01-13T07:22:54;8.10;99.90
25939;DHT22;13739;51.172;4.466;2023-01-13T07:25:21;8.00;99.90
25939;DHT22;13739;51.172;4.466;2023-01-13T07:27:46;8.00;99.90
25939;DHT22;13739;51.172;4.466;2023-01-13T07:30:12;8.00;99.90
25939;DHT22;13739;51.172;4.466;2023-01-13T07:32:38;8.00;99.90
25939;DHT22;13739;51.172;4.466;2023-01-13T07:35:04;8.00;99.90
25939;DHT22;13739;51.172;4.466;2023-01-13T07:37:34;8.00;99.90
25939;DHT22;13739;51.172;4.466;2023-01-13T07:40:02;8.00;99.90
25939;DHT22;13739;51.172;4.466;2023-01-13T07:42:28;8.00;99.90
25939;DHT22;13739;51.172;4.466;2023-01-13T07:45:12;8.00;99.90
25939;DHT22;13739;51.172;4.466;2023-01-13T07:47:38;8.10;99.90
25939;DHT22;13739;51.172;4.466;2023-01-13T07:50:05;8.10;99.90
25939;DHT22;13739;51.172;4.466;2023-01-13T07:52:30;8.10;99.90
25939;DHT22;13739;51.172;4.466;2023-01-13T07:54:56;8.20;99.90
25939;DHT22;13739;51.172;4.466;2023-01-13T07:57:22;8.20;99.90
25939;DHT22;13739;51.172;4.466;2023-01-13T07:59:47;8.30;99.90
25939;DHT22;13739;51.172;4.466;2023-01-13T08:02:13;8.30;99.90
25939;DHT22;13739;51.172;4.466;2023-01-13T08:04:39;8.30;99.90
25939;DHT22;13739;51.172;4.466;2023-01-13T08:07:05;8.30;99.90
25939;DHT22;13739;51.172;4.466;2023-01-13T08:09:31;8.40;99.90
25939;DHT22;13739;51.172;4.466;2023-01-13T08:11:57;8.30;99.90
25939;DHT22;13739;51.172;4.466;2023-01-13T08:14:41;8.30;99.90
25939;DHT22;13739;51.172;4.466;2023-01-13T08:17:07;8.30;99.90
25939;DHT22;13739;51.172;4.466;2023-01-13T08:19:33;8.30;99.90
25939;DHT22;13739;51.172;4.466;2023-01-13T08:21:59;8.40;99.90
25939;DHT22;13739;51.172;4.466;2023-01-13T08:24:25;8.50;99.90
25939;DHT22;13739;51.172;4.466;2023-01-13T08:26:50;8.50;99.90
25939;DHT22;13739;51.172;4.466;2023-01-13T08:29:16;8.60;99.90
25939;DHT22;13739;51.172;4.466;2023-01-13T08:31:42;8.60;99.90
25939;DHT22;13739;51.172;4.466;2023-01-13T08:34:07;8.70;99.90
25939;DHT22;13739;51.172;4.466;2023-01-13T08:36:33;8.70;99.90
25939;DHT22;13739;51.172;4.466;2023-01-13T08:38:59;8.80;99.90
25939;DHT22;13739;51.172;4.466;2023-01-13T08:41:24;8.90;99.90
25939;DHT22;13739;51.172;4.466;2023-01-13T08:44:13;8.80;99.90
25939;DHT22;13739;51.172;4.466;2023-01-13T08:46:40;8.80;99.90
25939;DHT22;13739;51.172;4.466;2023-01-13T08:49:06;8.90;99.90
25939;DHT22;13739;51.172;4.466;2023-01-13T08:51:32;8.90;99.90
25939;DHT22;13739;51.172;4.466;2023-01-13T08:53:58;9.00;99.90
25939;DHT22;13739;51.172;4.466;2023-01-13T08:56:23;9.00;99.90
25939;DHT22;13739;51.172;4.466;2023-01-13T08:58:49;9.10;99.90
25939;DHT22;13739;51.172;4.466;2023-01-13T09:01:20;9.10;99.90
25939;DHT22;13739;51.172;4.466;2023-01-13T09:03:46;9.10;99.90
25939;DHT22;13739;51.172;4.466;2023-01-13T09:06:12;9.10;99.90
25939;DHT22;13739;51.172;4.466;2023-01-13T09:08:38;9.10;99.90
25939;DHT22;13739;51.172;4.466;2023-01-13T09:11:03;9.10;99.90
25939;DHT22;13739;51.172;4.466;2023-01-13T09:13:49;9.10;99.90
25939;DHT22;13739;51.172;4.466;2023-01-13T09:16:15;9.10;99.90
25939;DHT22;13739;51.172;4.466;2023-01-13T09:18:40;9.10;99.90
25939;DHT22;13739;51.172;4.466;2023-01-13T09:21:09;9.10;99.90
25939;DHT22;13739;51.172;4.466;2023-01-13T09:23:36;9.10;99.90
25939;DHT22;13739;51.172;4.466;2023-01-13T09:26:02;9.10;99.90
25939;DHT22;13739;51.172;4.466;2023-01-13T09:28:28;9.10;99.90
25939;DHT22;13739;51.172;4.466;2023-01-13T09:30:53;9.10;99.90
25939;DHT22;13739;51.172;4.466;2023-01-13T09:33:19;9.10;99.90
25939;DHT22;13739;51.172;4.466;2023-01-13T09:36:03;9.10;99.90
25939;DHT22;13739;51.172;4.466;2023-01-13T09:38:29;9.20;99.90
25939;DHT22;13739;51.172;4.466;2023-01-13T09:40:55;9.20;99.90
25939;DHT22;13739;51.172;4.466;2023-01-13T09:43:29;9.30;99.90
25939;DHT22;13739;51.172;4.466;2023-01-13T09:46:23;9.40;99.90
25939;DHT22;13739;51.172;4.466;2023-01-13T09:49:20;9.50;99.90
25939;DHT22;13739;51.172;4.466;2023-01-13T09:52:01;9.70;99.90
25939;DHT22;13739;51.172;4.466;2023-01-13T09:55:10;9.70;99.90
25939;DHT22;13739;51.172;4.466;2023-01-13T09:57:18;9.70;99.90
25939;DHT22;13739;51.172;4.466;2023-01-13T09:59:44;9.80;99.90
25939;DHT22;13739;51.172;4.466;2023-01-13T10:04:39;9.80;99.90
25939;DHT22;13739;51.172;4.466;2023-01-13T10:07:11;9.80;99.90
25939;DHT22;13739;51.172;4.466;2023-01-13T10:09:49;9.80;99.90
25939;DHT22;13739;51.172;4.466;2023-01-13T10:12:19;9.80;99.90
25939;DHT22;13739;51.172;4.466;2023-01-13T10:15:05;9.90;99.90
25939;DHT22;13739;51.172;4.466;2023-01-13T10:17:52;9.90;99.90
25939;DHT22;13739;51.172;4.466;2023-01-13T10:20:29;9.80;99.90
25939;DHT22;13739;51.172;4.466;2023-01-13T10:23:19;9.70;99.90
25939;DHT22;13739;51.172;4.466;2023-01-13T10:28:56;9.60;99.90
25939;DHT22;13739;51.172;4.466;2023-01-13T10:31:23;9.60;99.90
25939;DHT22;13739;51.172;4.466;2023-01-13T10:34:00;9.60;99.90
25939;DHT22;13739;51.172;4.466;2023-01-13T10:36:28;9.50;99.90
25939;DHT22;13739;51.172;4.466;2023-01-13T10:39:06;9.50;99.90
25939;DHT22;13739;51.172;4.466;2023-01-13T10:41:32;9.50;99.90
25939;DHT22;13739;51.172;4.466;2023-01-13T10:44:04;9.50;99.90
25939;DHT22;13739;51.172;4.466;2023-01-13T10:46:33;9.50;99.90
25939;DHT22;13739;51.172;4.466;2023-01-13T10:49:21;9.50;99.90
25939;DHT22;13739;51.172;4.466;2023-01-13T10:51:49;9.50;99.90
25939;DHT22;13739;51.172;4.466;2023-01-13T10:54:21;9.50;99.90
25939;DHT22;13739;51.172;4.466;2023-01-13T10:56:47;9.60;99.90
25939;DHT22;13739;51.172;4.466;2023-01-13T11:02:00;9.70;99.90
25939;DHT22;13739;51.172;4.466;2023-01-13T11:04:29;9.60;99.90
25939;DHT22;13739;51.172;4.466;2023-01-13T11:06:56;9.70;99.90
25939;DHT22;13739;51.172;4.466;2023-01-13T11:09:24;9.80;99.90
25939;DHT22;13739;51.172;4.466;2023-01-13T11:11:50;9.80;99.90
25939;DHT22;13739;51.172;4.466;2023-01-13T11:14:41;9.80;99.90
25939;DHT22;13739;51.172;4.466;2023-01-13T11:22:38;9.80;99.90
25939;DHT22;13739;51.172;4.466;2023-01-13T11:25:09;9.80;99.90
25939;DHT22;13739;51.172;4.466;2023-01-13T11:30:55;9.90;99.90
25939;DHT22;13739;51.172;4.466;2023-01-13T11:36:16;9.90;99.90
25939;DHT22;13739;51.172;4.466;2023-01-13T11:38:43;9.80;99.90
25939;DHT22;13739;51.172;4.466;2023-01-13T11:44:16;9.80;99.90
25939;DHT22;13739;51.172;4.466;2023-01-13T11:46:43;9.90;99.90
25939;DHT22;13739;51.172;4.466;2023-01-13T11:49:22;9.90;99.90
25939;DHT22;13739;51.172;4.466;2023-01-13T11:52:07;9.90;99.90
25939;DHT22;13739;51.172;4.466;2023-01-13T12:05:46;10.00;99.90
25939;DHT22;13739;51.172;4.466;2023-01-13T12:10:50;10.10;99.90
25939;DHT22;13739;51.172;4.466;2023-01-13T12:15:49;10.00;99.90
25939;DHT22;13739;51.172;4.466;2023-01-13T12:21:05;10.10;99.90
25939;DHT22;13739;51.172;4.466;2023-01-13T12:23:34;10.20;99.90
25939;DHT22;13739;51.172;4.466;2023-01-13T12:26:07;10.20;99.90
25939;DHT22;13739;51.172;4.466;2023-01-13T12:31:16;10.20;99.90
25939;DHT22;13739;51.172;4.466;2023-01-13T12:36:57;10.20;99.90
25939;DHT22;13739;51.172;4.466;2023-01-13T12:42:18;10.00;99.90
25939;DHT22;13739;51.172;4.466;2023-01-13T12:45:31;9.90;99.90
25939;DHT22;13739;51.172;4.466;2023-01-13T12:47:58;9.90;99.90
25939;DHT22;13739;51.172;4.466;2023-01-13T12:55:26;10.00;99.90
25939;DHT22;13739;51.172;4.466;2023-01-13T12:58:12;9.80;99.90
25939;DHT22;13739;51.172;4.466;2023-01-13T13:06:21;9.60;99.90
25939;DHT22;13739;51.172;4.466;2023-01-13T13:14:14;9.70;99.90
25939;DHT22;13739;51.172;4.466;2023-01-13T13:17:00;9.70;99.90
25939;DHT22;13739;51.172;4.466;2023-01-13T13:25:13;9.90;99.90
25939;DHT22;13739;51.172;4.466;2023-01-13T13:30:29;9.80;99.90
25939;DHT22;13739;51.172;4.466;2023-01-13T13:42:24;9.80;99.90
25939;DHT22;13739;51.172;4.466;2023-01-13T13:45:21;9.80;99.90
25939;DHT22;13739;51.172;4.466;2023-01-13T13:48:23;9.80;99.90
25939;DHT22;13739;51.172;4.466;2023-01-13T13:50:50;9.80;99.90
25939;DHT22;13739;51.172;4.466;2023-01-13T13:53:25;9.80;99.90
25939;DHT22;13739;51.172;4.466;2023-01-13T13:55:58;10.00;99.90
25939;DHT22;13739;51.172;4.466;2023-01-13T13:58:25;9.90;99.90
25939;DHT22;13739;51.172;4.466;2023-01-13T14:00:52;9.90;99.90
25939;DHT22;13739;51.172;4.466;2023-01-13T14:03:36;9.90;99.90
25939;DHT22;13739;51.172;4.466;2023-01-13T14:06:04;10.00;99.90
25939;DHT22;13739;51.172;4.466;2023-01-13T14:08:36;10.10;99.90
25939;DHT22;13739;51.172;4.466;2023-01-13T14:11:26;10.10;99.90
25939;DHT22;13739;51.172;4.466;2023-01-13T14:14:03;10.10;99.90
25939;DHT22;13739;51.172;4.466;2023-01-13T14:16:31;10.20;99.90
25939;DHT22;13739;51.172;4.466;2023-01-13T14:18:57;10.30;99.90
25939;DHT22;13739;51.172;4.466;2023-01-13T14:21:25;10.30;99.90
25939;DHT22;13739;51.172;4.466;2023-01-13T14:26:24;10.30;99.90
25939;DHT22;13739;51.172;4.466;2023-01-13T14:28:50;10.40;99.90
25939;DHT22;13739;51.172;4.466;2023-01-13T14:31:16;10.50;99.90
25939;DHT22;13739;51.172;4.466;2023-01-13T14:33:45;10.50;99.90
25939;DHT22;13739;51.172;4.466;2023-01-13T14:38:44;10.40;99.90
25939;DHT22;13739;51.172;4.466;2023-01-13T14:41:25;10.50;99.90
25939;DHT22;13739;51.172;4.466;2023-01-13T14:43:55;10.50;99.90
25939;DHT22;13739;51.172;4.466;2023-01-13T14:46:22;10.40;99.90
25939;DHT22;13739;51.172;4.466;2023-01-13T14:48:52;10.40;99.90
25939;DHT22;13739;51.172;4.466;2023-01-13T14:51:26;10.30;99.90
25939;DHT22;13739;51.172;4.466;2023-01-13T14:53:52;10.30;99.90
25939;DHT22;13739;51.172;4.466;2023-01-13T14:56:44;10.30;99.90
25939;DHT22;13739;51.172;4.466;2023-01-13T15:02:38;10.60;99.90
25939;DHT22;13739;51.172;4.466;2023-01-13T15:13:41;10.40;99.90
25939;DHT22;13739;51.172;4.466;2023-01-13T15:16:23;10.40;99.90
25939;DHT22;13739;51.172;4.466;2023-01-13T15:18:50;10.40;99.90
25939;DHT22;13739;51.172;4.466;2023-01-13T15:21:16;10.40;99.90
25939;DHT22;13739;51.172;4.466;2023-01-13T15:23:42;10.40;99.90
25939;DHT22;13739;51.172;4.466;2023-01-13T15:26:20;10.40;99.90
25939;DHT22;13739;51.172;4.466;2023-01-13T15:28:46;10.50;99.90
25939;DHT22;13739;51.172;4.466;2023-01-13T15:31:13;10.50;99.90
25939;DHT22;13739;51.172;4.466;2023-01-13T15:33:38;10.40;99.90
25939;DHT22;13739;51.172;4.466;2023-01-13T15:38:35;10.40;99.90
25939;DHT22;13739;51.172;4.466;2023-01-13T15:41:01;10.40;99.90
25939;DHT22;13739;51.172;4.466;2023-01-13T15:43:27;10.50;99.90
25939;DHT22;13739;51.172;4.466;2023-01-13T15:46:15;10.50;99.90
25939;DHT22;13739;51.172;4.466;2023-01-13T15:49:06;10.40;99.90
25939;DHT22;13739;51.172;4.466;2023-01-13T15:51:35;10.40;99.90
25939;DHT22;13739;51.172;4.466;2023-01-13T15:54:01;10.30;99.90
25939;DHT22;13739;51.172;4.466;2023-01-13T15:56:27;10.30;99.90
25939;DHT22;13739;51.172;4.466;2023-01-13T15:58:53;10.20;99.90
25939;DHT22;13739;51.172;4.466;2023-01-13T16:01:18;10.20;99.90
25939;DHT22;13739;51.172;4.466;2023-01-13T16:03:44;10.10;99.90
25939;DHT22;13739;51.172;4.466;2023-01-13T16:06:19;10.10;99.90
25939;DHT22;13739;51.172;4.466;2023-01-13T16:08:45;9.90;99.90
25939;DHT22;13739;51.172;4.466;2023-01-13T16:11:11;9.90;99.90
25939;DHT22;13739;51.172;4.466;2023-01-13T16:13:37;9.90;99.90
25939;DHT22;13739;51.172;4.466;2023-01-13T16:16:17;9.90;99.90
25939;DHT22;13739;51.172;4.466;2023-01-13T16:18:43;9.90;99.90
25939;DHT22;13739;51.172;4.466;2023-01-13T16:21:11;9.90;99.90
25939;DHT22;13739;51.172;4.466;2023-01-13T16:23:37;9.90;99.90
25939;DHT22;13739;51.172;4.466;2023-01-13T16:26:13;9.80;99.90
25939;DHT22;13739;51.172;4.466;2023-01-13T16:28:40;9.80;99.90
25939;DHT22;13739;51.172;4.466;2023-01-13T16:31:18;9.80;99.90
25939;DHT22;13739;51.172;4.466;2023-01-13T16:33:45;9.70;99.90
25939;DHT22;13739;51.172;4.466;2023-01-13T16:36:16;9.70;99.90
25939;DHT22;13739;51.172;4.466;2023-01-13T16:38:42;9.70;99.90
25939;DHT22;13739;51.172;4.466;2023-01-13T16:41:08;9.70;99.90
25939;DHT22;13739;51.172;4.466;2023-01-13T16:43:34;9.60;99.90
25939;DHT22;13739;51.172;4.466;2023-01-13T16:45:59;9.60;99.90
25939;DHT22;13739;51.172;4.466;2023-01-13T16:48:25;9.60;99.90
25939;DHT22;13739;51.172;4.466;2023-01-13T16:50:51;9.60;99.90
25939;DHT22;13739;51.172;4.466;2023-01-13T16:53:16;9.60;99.90
25939;DHT22;13739;51.172;4.466;2023-01-13T16:55:42;9.50;99.90
25939;DHT22;13739;51.172;4.466;2023-01-13T16:58:17;9.60;99.90
25939;DHT22;13739;51.172;4.466;2023-01-13T17:00:44;9.40;99.90
25939;DHT22;13739;51.172;4.466;2023-01-13T17:03:13;9.60;99.90
25939;DHT22;13739;51.172;4.466;2023-01-13T17:05:41;9.60;99.90
25939;DHT22;13739;51.172;4.466;2023-01-13T17:08:11;9.60;99.90
25939;DHT22;13739;51.172;4.466;2023-01-13T17:10:38;9.60;99.90
25939;DHT22;13739;51.172;4.466;2023-01-13T17:13:04;9.60;99.90
25939;DHT22;13739;51.172;4.466;2023-01-13T17:15:29;9.80;99.90
25939;DHT22;13739;51.172;4.466;2023-01-13T17:17:58;9.70;99.90
25939;DHT22;13739;51.172;4.466;2023-01-13T17:20:24;9.70;99.90
25939;DHT22;13739;51.172;4.466;2023-01-13T17:22:49;9.80;99.90
25939;DHT22;13739;51.172;4.466;2023-01-13T17:25:15;9.80;99.90
25939;DHT22;13739;51.172;4.466;2023-01-13T17:27:41;9.80;99.90
25939;DHT22;13739;51.172;4.466;2023-01-13T17:30:08;9.80;99.90
25939;DHT22;13739;51.172;4.466;2023-01-13T17:32:34;9.80;99.90
25939;DHT22;13739;51.172;4.466;2023-01-13T17:35:00;9.80;99.90
25939;DHT22;13739;51.172;4.466;2023-01-13T17:37:27;9.80;99.90
25939;DHT22;13739;51.172;4.466;2023-01-13T17:39:53;9.70;99.90
25939;DHT22;13739;51.172;4.466;2023-01-13T17:42:20;9.80;99.90
25939;DHT22;13739;51.172;4.466;2023-01-13T17:44:46;9.80;99.90
25939;DHT22;13739;51.172;4.466;2023-01-13T17:47:13;9.80;99.90
25939;DHT22;13739;51.172;4.466;2023-01-13T17:49:38;9.70;99.90
25939;DHT22;13739;51.172;4.466;2023-01-13T17:52:04;9.80;99.90
25939;DHT22;13739;51.172;4.466;2023-01-13T17:54:30;9.80;99.90
25939;DHT22;13739;51.172;4.466;2023-01-13T17:56:56;9.80;99.90
25939;DHT22;13739;51.172;4.466;2023-01-13T17:59:22;9.90;99.90
25939;DHT22;13739;51.172;4.466;2023-01-13T18:01:51;10.00;99.90
25939;DHT22;13739;51.172;4.466;2023-01-13T18:04:22;10.00;99.90
25939;DHT22;13739;51.172;4.466;2023-01-13T18:06:48;9.90;99.90
25939;DHT22;13739;51.172;4.466;2023-01-13T18:09:14;10.00;99.90
25939;DHT22;13739;51.172;4.466;2023-01-13T18:11:41;10.00;99.90
25939;DHT22;13739;51.172;4.466;2023-01-13T18:14:08;10.10;99.90
25939;DHT22;13739;51.172;4.466;2023-01-13T18:16:34;10.00;99.90
25939;DHT22;13739;51.172;4.466;2023-01-13T18:19:00;10.00;99.90
25939;DHT22;13739;51.172;4.466;2023-01-13T18:21:45;10.00;99.90